createdAt,value
2019-04-28T00:00:41.157Z,948.62
2019-04-28T00:01:41.053Z,948.65
2019-04-28T00:02:40.813Z,948.64
2019-04-28T00:03:41.841Z,948.65
2019-04-28T00:04:41.417Z,948.62
2019-04-28T00:05:41.515Z,948.67
2019-04-28T00:06:41.654Z,948.77
2019-04-28T00:07:41.095Z,948.78
2019-04-28T00:08:39.820Z,948.76
2019-04-28T00:09:41.498Z,948.79
2019-04-28T00:10:41.716Z,948.82
2019-04-28T00:11:41.584Z,948.84
2019-04-28T00:12:41.262Z,948.86
2019-04-28T00:13:41.579Z,948.80
2019-04-28T00:14:41.647Z,948.83
2019-04-28T00:15:41.537Z,948.82
2019-04-28T00:16:41.154Z,948.81
2019-04-28T00:17:39.688Z,948.81
2019-04-28T00:18:41.331Z,948.79
2019-04-28T00:19:40.875Z,948.75
2019-04-28T00:20:40.868Z,948.82
2019-04-28T00:21:41.361Z,948.87
2019-04-28T00:22:39.619Z,948.83
2019-04-28T00:23:39.594Z,948.83
2019-04-28T00:24:41.485Z,948.83
2019-04-28T00:25:41.071Z,948.85
2019-04-28T00:26:40.998Z,948.86
2019-04-28T00:27:41.385Z,948.89
2019-04-28T00:28:41.318Z,948.90
2019-04-28T00:29:43.525Z,948.92
2019-04-28T00:30:41.721Z,948.92
2019-04-28T00:31:41.178Z,948.97
2019-04-28T00:32:39.491Z,948.99
2019-04-28T00:33:41.023Z,948.96
2019-04-28T00:34:41.290Z,948.92
2019-04-28T00:35:39.467Z,948.89
2019-04-28T00:36:42.554Z,948.90
2019-04-28T00:37:39.467Z,948.92
2019-04-28T00:38:41.371Z,948.95
2019-04-28T00:39:40.956Z,948.93
2019-04-28T00:40:41.253Z,948.94
2019-04-28T00:41:39.448Z,948.88
2019-04-28T00:42:41.233Z,948.89
2019-04-28T00:43:39.386Z,948.85
2019-04-28T00:44:39.358Z,948.90
2019-04-28T00:45:41.232Z,948.91
2019-04-28T00:46:41.061Z,948.82
2019-04-28T00:47:41.266Z,948.90
2019-04-28T00:48:40.929Z,948.85
2019-04-28T00:49:39.320Z,948.84
2019-04-28T00:50:39.295Z,948.84
2019-04-28T00:51:41.343Z,948.85
2019-04-28T00:52:39.306Z,948.86
2019-04-28T00:53:40.875Z,948.84
2019-04-28T00:54:39.244Z,948.85
2019-04-28T00:55:39.243Z,948.87
2019-04-28T00:56:39.209Z,948.85
2019-04-28T00:57:40.896Z,948.90
2019-04-28T00:58:39.249Z,948.88
2019-04-28T00:59:52.202Z,948.90
2019-04-28T01:00:41.448Z,948.93
2019-04-28T01:01:40.719Z,948.94
2019-04-28T01:02:41.106Z,948.93
2019-04-28T01:03:39.145Z,948.93
2019-04-28T01:04:39.144Z,948.95
2019-04-28T01:05:41.047Z,948.89
2019-04-28T01:06:39.119Z,948.87
2019-04-28T01:07:41.186Z,948.86
2019-04-28T01:08:39.087Z,948.89
2019-04-28T01:09:39.128Z,948.85
2019-04-28T01:10:40.893Z,948.87
2019-04-28T01:11:39.049Z,948.83
2019-04-28T01:12:40.592Z,948.83
2019-04-28T01:13:39.029Z,948.80
2019-04-28T01:14:40.968Z,948.77
2019-04-28T01:15:39.630Z,948.79
2019-04-28T01:16:40.056Z,948.84
2019-04-28T01:17:39.767Z,948.82
2019-04-28T01:18:40.460Z,948.83
2019-04-28T01:19:39.820Z,948.84
2019-04-28T01:20:39.661Z,948.80
2019-04-28T01:21:41.567Z,948.79
2019-04-28T01:22:40.186Z,948.78
2019-04-28T01:23:40.260Z,948.82
2019-04-28T01:24:39.747Z,948.77
2019-04-28T01:25:40.127Z,948.84
2019-04-28T01:26:39.225Z,948.81
2019-04-28T01:27:40.295Z,948.84
2019-04-28T01:28:39.783Z,948.83
2019-04-28T01:29:40.281Z,948.82
2019-04-28T01:30:40.110Z,948.80
2019-04-28T01:31:39.634Z,948.80
2019-04-28T01:32:39.956Z,948.85
2019-04-28T01:33:40.519Z,948.81
2019-04-28T01:34:39.987Z,948.84
2019-04-28T01:35:39.705Z,948.85
2019-04-28T01:36:39.984Z,948.90
2019-04-28T01:37:40.588Z,948.89
2019-04-28T01:38:40.189Z,948.89
2019-04-28T01:39:40.981Z,948.86
2019-04-28T01:40:38.720Z,948.92
2019-04-28T01:41:39.781Z,948.89
2019-04-28T01:42:38.784Z,948.87
2019-04-28T01:43:38.695Z,948.91
2019-04-28T01:44:39.549Z,948.88
2019-04-28T01:45:39.891Z,948.86
2019-04-28T01:46:39.893Z,948.86
2019-04-28T01:47:40.429Z,948.87
2019-04-28T01:48:39.801Z,948.89
2019-04-28T01:49:40.429Z,948.94
2019-04-28T01:50:40.000Z,948.95
2019-04-28T01:51:38.601Z,948.96
2019-04-28T01:52:39.930Z,948.93
2019-04-28T01:53:39.566Z,948.95
2019-04-28T01:54:40.325Z,948.97
2019-04-28T01:55:39.553Z,948.96
2019-04-28T01:56:40.283Z,948.95
2019-04-28T01:57:39.999Z,948.97
2019-04-28T01:58:40.235Z,948.95
2019-04-28T01:59:40.352Z,948.97
2019-04-28T02:00:40.422Z,948.97
2019-04-28T02:01:39.984Z,948.90
2019-04-28T02:02:38.471Z,948.88
2019-04-28T02:03:40.307Z,948.86
2019-04-28T02:04:40.166Z,948.84
2019-04-28T02:05:40.408Z,948.85
2019-04-28T02:06:39.892Z,948.88
2019-04-28T02:07:40.595Z,948.95
2019-04-28T02:08:39.899Z,948.94
2019-04-28T02:09:39.589Z,948.88
2019-04-28T02:10:40.180Z,948.85
2019-04-28T02:11:39.163Z,948.83
2019-04-28T02:12:39.907Z,948.84
2019-04-28T02:13:39.792Z,948.88
2019-04-28T02:14:40.258Z,948.88
2019-04-28T02:15:40.038Z,948.94
2019-04-28T02:16:38.369Z,948.87
2019-04-28T02:17:40.009Z,948.88
2019-04-28T02:18:39.861Z,948.88
2019-04-28T02:19:38.276Z,948.92
2019-04-28T02:20:39.750Z,948.95
2019-04-28T02:21:39.538Z,948.95
2019-04-28T02:22:40.013Z,948.98
2019-04-28T02:23:39.711Z,949.03
2019-04-28T02:24:38.301Z,949.06
2019-04-28T02:25:39.884Z,949.03
2019-04-28T02:26:40.184Z,949.02
2019-04-28T02:27:39.936Z,948.98
2019-04-28T02:28:38.170Z,949.03
2019-04-28T02:29:41.404Z,948.99
2019-04-28T02:30:47.887Z,949.03
2019-04-28T02:31:41.910Z,949.06
2019-04-28T02:32:40.728Z,949.05
2019-04-28T02:33:40.683Z,949.03
2019-04-28T02:34:40.716Z,949.03
2019-04-28T02:35:38.181Z,949.03
2019-04-28T02:36:40.561Z,949.03
2019-04-28T02:37:40.371Z,949.05
2019-04-28T02:38:38.115Z,949.08
2019-04-28T02:39:40.633Z,949.05
2019-04-28T02:40:40.417Z,949.09
2019-04-28T02:41:40.945Z,949.13
2019-04-28T02:42:40.707Z,949.13
2019-04-28T02:43:40.692Z,949.15
2019-04-28T02:44:40.268Z,949.14
2019-04-28T02:45:41.005Z,949.12
2019-04-28T02:46:40.565Z,949.12
2019-04-28T02:47:37.971Z,949.15
2019-04-28T02:48:40.326Z,949.14
2019-04-28T02:49:40.364Z,949.19
2019-04-28T02:50:37.942Z,949.20
2019-04-28T02:51:40.506Z,949.21
2019-04-28T02:52:37.898Z,949.17
2019-04-28T02:53:40.663Z,949.17
2019-04-28T02:54:40.287Z,949.15
2019-04-28T02:55:37.900Z,949.17
2019-04-28T02:56:43.399Z,949.14
2019-04-28T02:57:40.594Z,949.20
2019-04-28T02:58:37.829Z,949.22
2019-04-28T02:59:41.016Z,949.19
2019-04-28T03:00:37.845Z,949.18
2019-04-28T03:01:40.726Z,949.19
2019-04-28T03:02:37.814Z,949.19
2019-04-28T03:03:37.778Z,949.22
2019-04-28T03:04:40.596Z,949.15
2019-04-28T03:05:37.746Z,949.20
2019-04-28T03:06:40.528Z,949.24
2019-04-28T03:07:37.737Z,949.24
2019-04-28T03:08:40.248Z,949.21
2019-04-28T03:09:40.187Z,949.25
2019-04-28T03:10:37.734Z,949.22
2019-04-28T03:11:37.691Z,949.22
2019-04-28T03:12:37.728Z,949.22
2019-04-28T03:13:37.667Z,949.22
2019-04-28T03:14:43.334Z,949.23
2019-04-28T03:15:37.670Z,949.22
2019-04-28T03:16:37.623Z,949.22
2019-04-28T03:17:40.393Z,949.20
2019-04-28T03:18:37.647Z,949.18
2019-04-28T03:19:37.598Z,949.17
2019-04-28T03:20:37.594Z,949.13
2019-04-28T03:21:37.586Z,949.14
2019-04-28T03:22:37.574Z,949.13
2019-04-28T03:23:40.400Z,949.14
2019-04-28T03:24:37.547Z,949.13
2019-04-28T03:25:40.540Z,949.10
2019-04-28T03:26:37.548Z,948.97
2019-04-28T03:27:37.535Z,949.07
2019-04-28T03:28:37.501Z,949.06
2019-04-28T03:29:37.516Z,949.13
2019-04-28T03:30:37.471Z,949.09
2019-04-28T03:32:07.186Z,949.10
2019-04-28T03:32:51.746Z,949.14
2019-04-28T03:33:48.037Z,949.13
2019-04-28T03:34:42.869Z,949.13
2019-04-28T03:35:38.415Z,949.17
2019-04-28T03:36:37.416Z,949.16
2019-04-28T03:37:37.396Z,949.20
2019-04-28T03:38:37.389Z,949.21
2019-04-28T03:39:37.381Z,949.26
2019-04-28T03:40:37.383Z,949.21
2019-04-28T03:41:37.357Z,949.27
2019-04-28T03:42:37.339Z,949.35
2019-04-28T03:43:37.371Z,949.32
2019-04-28T03:44:37.317Z,949.36
2019-04-28T03:45:37.344Z,949.34
2019-04-28T03:46:37.282Z,949.36
2019-04-28T03:47:37.278Z,949.36
2019-04-28T03:48:37.312Z,949.40
2019-04-28T03:49:37.270Z,949.37
2019-04-28T03:50:38.003Z,949.39
2019-04-28T03:51:37.238Z,949.45
2019-04-28T03:52:37.258Z,949.48
2019-04-28T03:53:37.208Z,949.49
2019-04-28T03:54:37.198Z,949.49
2019-04-28T03:55:37.201Z,949.50
2019-04-28T03:56:37.947Z,949.49
2019-04-28T03:57:37.159Z,949.53
2019-04-28T03:58:37.167Z,949.50
2019-04-28T03:59:37.142Z,949.49
2019-04-28T04:00:37.132Z,949.49
2019-04-28T04:01:53.101Z,949.47
2019-04-28T04:02:40.905Z,949.46
2019-04-28T04:03:37.089Z,949.47
2019-04-28T04:04:37.086Z,949.46
2019-04-28T04:05:37.070Z,949.48
2019-04-28T04:06:37.067Z,949.47
2019-04-28T04:07:37.082Z,949.46
2019-04-28T04:08:37.087Z,949.42
2019-04-28T04:09:37.036Z,949.42
2019-04-28T04:10:37.018Z,949.41
2019-04-28T04:11:37.015Z,949.34
2019-04-28T04:12:37.000Z,949.33
2019-04-28T04:13:37.025Z,949.30
2019-04-28T04:14:37.021Z,949.38
2019-04-28T04:15:36.956Z,949.36
2019-04-28T04:16:36.976Z,949.35
2019-04-28T04:17:36.953Z,949.31
2019-04-28T04:18:36.959Z,949.32
2019-04-28T04:19:36.969Z,949.32
2019-04-28T04:20:36.913Z,949.29
2019-04-28T04:21:36.899Z,949.34
2019-04-28T04:22:36.891Z,949.30
2019-04-28T04:23:36.896Z,949.30
2019-04-28T04:24:36.859Z,949.29
2019-04-28T04:25:36.911Z,949.27
2019-04-28T04:26:36.838Z,949.30
2019-04-28T04:27:36.826Z,949.31
2019-04-28T04:28:36.817Z,949.31
2019-04-28T04:29:36.841Z,949.36
2019-04-28T04:30:36.813Z,949.37
2019-04-28T04:31:36.808Z,949.41
2019-04-28T04:32:36.784Z,949.43
2019-04-28T04:33:36.763Z,949.39
2019-04-28T04:34:36.795Z,949.39
2019-04-28T04:35:36.725Z,949.42
2019-04-28T04:36:36.736Z,949.41
2019-04-28T04:37:36.732Z,949.43
2019-04-28T04:38:40.031Z,949.41
2019-04-28T04:39:40.526Z,949.42
2019-04-28T04:40:36.673Z,949.42
2019-04-28T04:41:36.716Z,949.46
2019-04-28T04:42:37.456Z,949.47
2019-04-28T04:43:36.666Z,949.46
2019-04-28T04:44:40.611Z,949.49
2019-04-28T04:45:36.659Z,949.49
2019-04-28T04:46:36.600Z,949.49
2019-04-28T04:47:36.633Z,949.57
2019-04-28T04:48:36.594Z,949.53
2019-04-28T04:49:36.568Z,949.54
2019-04-28T04:50:36.568Z,949.64
2019-04-28T04:51:36.551Z,949.62
2019-04-28T04:52:36.583Z,949.65
2019-04-28T04:53:36.561Z,949.69
2019-04-28T04:54:36.939Z,949.70
2019-04-28T04:55:36.507Z,949.69
2019-04-28T04:56:36.516Z,949.72
2019-04-28T04:57:36.552Z,949.77
2019-04-28T04:58:36.498Z,949.82
2019-04-28T04:59:36.452Z,949.82
2019-04-28T05:00:36.453Z,949.80
2019-04-28T05:01:36.474Z,949.82
2019-04-28T05:02:36.448Z,949.86
2019-04-28T05:03:36.459Z,949.87
2019-04-28T05:04:36.414Z,949.94
2019-04-28T05:05:36.392Z,949.91
2019-04-28T05:06:36.384Z,949.94
2019-04-28T05:07:36.412Z,949.98
2019-04-28T05:08:36.396Z,950.01
2019-04-28T05:09:36.386Z,950.07
2019-04-28T05:10:36.353Z,950.09
2019-04-28T05:11:36.323Z,950.06
2019-04-28T05:12:36.351Z,950.11
2019-04-28T05:13:36.311Z,950.14
2019-04-28T05:14:36.291Z,950.15
2019-04-28T05:15:36.342Z,950.19
2019-04-28T05:16:36.266Z,950.09
2019-04-28T05:17:36.254Z,950.09
2019-04-28T05:18:36.241Z,950.11
2019-04-28T05:19:36.293Z,950.07
2019-04-28T05:20:36.272Z,950.08
2019-04-28T05:21:36.216Z,950.12
2019-04-28T05:22:36.213Z,950.05
2019-04-28T05:23:36.178Z,950.08
2019-04-28T05:24:36.183Z,950.08
2019-04-28T05:25:36.279Z,950.02
2019-04-28T05:26:36.188Z,950.08
2019-04-28T05:27:36.200Z,950.10
2019-04-28T05:28:36.850Z,950.08
2019-04-28T05:29:37.140Z,950.14
2019-04-28T05:30:39.657Z,950.15
2019-04-28T05:31:37.169Z,950.15
2019-04-28T05:32:44.752Z,950.17
2019-04-28T05:33:37.086Z,950.16
2019-04-28T05:34:41.392Z,950.17
2019-04-28T05:35:37.089Z,950.05
2019-04-28T05:36:40.959Z,950.06
2019-04-28T05:37:36.068Z,950.05
2019-04-28T05:38:36.018Z,950.10
2019-04-28T05:39:37.884Z,950.08
2019-04-28T05:40:36.019Z,950.09
2019-04-28T05:41:35.989Z,950.12
2019-04-28T05:42:35.976Z,950.08
2019-04-28T05:43:36.043Z,950.06
2019-04-28T05:44:37.614Z,950.08
2019-04-28T05:45:35.955Z,950.10
2019-04-28T05:46:35.982Z,950.09
2019-04-28T05:47:35.925Z,950.12
2019-04-28T05:48:35.954Z,950.13
2019-04-28T05:49:35.894Z,950.16
2019-04-28T05:50:35.919Z,950.11
2019-04-28T05:51:35.874Z,950.11
2019-04-28T05:52:35.860Z,950.16
2019-04-28T05:53:35.854Z,950.15
2019-04-28T05:54:35.865Z,950.11
2019-04-28T05:55:35.836Z,950.13
2019-04-28T05:56:35.820Z,950.10
2019-04-28T05:57:37.563Z,950.15
2019-04-28T05:58:35.811Z,950.15
2019-04-28T05:59:35.834Z,950.12
2019-04-28T06:00:35.770Z,950.15
2019-04-28T06:01:35.758Z,950.17
2019-04-28T06:02:35.760Z,950.15
2019-04-28T06:03:35.751Z,950.12
2019-04-28T06:04:35.752Z,950.16
2019-04-28T06:05:35.775Z,950.14
2019-04-28T06:06:35.715Z,950.16
2019-04-28T06:07:35.679Z,950.17
2019-04-28T06:08:35.685Z,950.16
2019-04-28T06:09:35.676Z,950.15
2019-04-28T06:10:35.698Z,950.17
2019-04-28T06:11:35.660Z,950.19
2019-04-28T06:12:35.635Z,950.15
2019-04-28T06:13:35.617Z,950.20
2019-04-28T06:14:35.612Z,950.24
2019-04-28T06:15:35.603Z,950.24
2019-04-28T06:16:35.607Z,950.30
2019-04-28T06:17:35.577Z,950.32
2019-04-28T06:18:35.564Z,950.41
2019-04-28T06:19:35.619Z,950.45
2019-04-28T06:20:35.551Z,950.48
2019-04-28T06:21:35.553Z,950.43
2019-04-28T06:22:35.550Z,950.43
2019-04-28T06:23:35.521Z,950.43
2019-04-28T06:24:35.488Z,950.47
2019-04-28T06:25:35.489Z,950.42
2019-04-28T06:26:35.506Z,950.43
2019-04-28T06:27:35.495Z,950.38
2019-04-28T06:28:35.443Z,950.39
2019-04-28T06:29:35.445Z,950.43
2019-04-28T06:30:35.427Z,950.42
2019-04-28T06:31:35.453Z,950.44
2019-04-28T06:32:35.411Z,950.46
2019-04-28T06:33:35.434Z,950.40
2019-04-28T06:34:35.386Z,950.41
2019-04-28T06:35:35.369Z,950.44
2019-04-28T06:36:35.403Z,950.43
2019-04-28T06:37:35.338Z,950.42
2019-04-28T06:38:35.433Z,950.42
2019-04-28T06:39:35.326Z,950.47
2019-04-28T06:40:35.324Z,950.44
2019-04-28T06:41:35.309Z,950.48
2019-04-28T06:42:35.313Z,950.45
2019-04-28T06:43:35.290Z,950.45
2019-04-28T06:44:35.300Z,950.49
2019-04-28T06:45:35.320Z,950.48
2019-04-28T06:46:35.291Z,950.47
2019-04-28T06:47:35.232Z,950.48
2019-04-28T06:48:35.284Z,950.46
2019-04-28T06:49:35.246Z,950.48
2019-04-28T06:50:35.195Z,950.46
2019-04-28T06:51:35.196Z,950.45
2019-04-28T06:52:35.246Z,950.48
2019-04-28T06:53:35.174Z,950.55
2019-04-28T06:54:35.155Z,950.54
2019-04-28T06:55:35.164Z,950.51
2019-04-28T06:56:35.142Z,950.51
2019-04-28T06:57:35.142Z,950.53
2019-04-28T06:58:35.104Z,950.52
2019-04-28T06:59:35.111Z,950.57
2019-04-28T07:00:35.104Z,950.50
2019-04-28T07:01:35.102Z,950.51
2019-04-28T07:02:35.069Z,950.53
2019-04-28T07:03:35.050Z,950.53
2019-04-28T07:04:35.043Z,950.46
2019-04-28T07:05:35.052Z,950.48
2019-04-28T07:06:35.026Z,950.52
2019-04-28T07:07:35.039Z,950.52
2019-04-28T07:08:34.996Z,950.52
2019-04-28T07:09:34.986Z,950.55
2019-04-28T07:10:34.975Z,950.52
2019-04-28T07:11:34.977Z,950.52
2019-04-28T07:12:35.011Z,950.55
2019-04-28T07:13:34.962Z,950.55
2019-04-28T07:14:34.937Z,950.56
2019-04-28T07:15:34.964Z,950.58
2019-04-28T07:16:34.929Z,950.55
2019-04-28T07:17:34.909Z,950.60
2019-04-28T07:18:34.934Z,950.56
2019-04-28T07:19:34.871Z,950.62
2019-04-28T07:20:34.861Z,950.67
2019-04-28T07:21:34.859Z,950.69
2019-04-28T07:22:34.855Z,950.73
2019-04-28T07:23:34.818Z,950.76
2019-04-28T07:24:34.825Z,950.82
2019-04-28T07:25:34.828Z,950.81
2019-04-28T07:26:34.795Z,950.87
2019-04-28T07:27:34.809Z,950.89
2019-04-28T07:28:34.780Z,950.84
2019-04-28T07:29:34.831Z,950.89
2019-04-28T07:30:34.785Z,950.91
2019-04-28T07:31:34.743Z,950.89
2019-04-28T07:32:34.727Z,950.87
2019-04-28T07:33:36.177Z,950.90
2019-04-28T07:34:34.722Z,950.89
2019-04-28T07:35:34.725Z,950.90
2019-04-28T07:36:34.707Z,950.92
2019-04-28T07:37:34.670Z,950.90
2019-04-28T07:38:34.693Z,950.93
2019-04-28T07:39:34.646Z,950.98
2019-04-28T07:40:34.676Z,950.99
2019-04-28T07:41:34.625Z,950.98
2019-04-28T07:42:34.679Z,951.00
2019-04-28T07:43:34.603Z,950.99
2019-04-28T07:44:34.613Z,951.06
2019-04-28T07:45:34.582Z,951.02
2019-04-28T07:46:34.592Z,951.05
2019-04-28T07:47:34.627Z,951.10
2019-04-28T07:48:34.545Z,951.10
2019-04-28T07:49:34.544Z,951.14
2019-04-28T07:50:34.535Z,951.13
2019-04-28T07:51:34.575Z,951.12
2019-04-28T07:52:34.489Z,951.16
2019-04-28T07:53:34.501Z,951.16
2019-04-28T07:54:34.503Z,951.20
2019-04-28T07:55:34.477Z,951.20
2019-04-28T07:56:34.463Z,951.20
2019-04-28T07:57:34.512Z,951.29
2019-04-28T07:58:34.427Z,951.30
2019-04-28T07:59:34.442Z,951.27
2019-04-28T08:00:34.401Z,951.27
2019-04-28T08:01:34.396Z,951.27
2019-04-28T08:02:34.396Z,951.29
2019-04-28T08:03:34.381Z,951.30
2019-04-28T08:04:34.453Z,951.26
2019-04-28T08:05:34.344Z,951.30
2019-04-28T08:06:34.356Z,951.28
2019-04-28T08:07:34.333Z,951.35
2019-04-28T08:08:34.331Z,951.31
2019-04-28T08:09:34.311Z,951.35
2019-04-28T08:10:34.293Z,951.43
2019-04-28T08:11:34.321Z,951.38
2019-04-28T08:12:34.287Z,951.40
2019-04-28T08:13:34.301Z,951.36
2019-04-28T08:14:34.243Z,951.44
2019-04-28T08:15:34.327Z,951.40
2019-04-28T08:16:34.233Z,951.42
2019-04-28T08:17:34.235Z,951.43
2019-04-28T08:18:34.200Z,951.43
2019-04-28T08:19:34.208Z,951.44
2019-04-28T08:20:34.207Z,951.43
2019-04-28T08:21:34.283Z,951.41
2019-04-28T08:22:34.214Z,951.46
2019-04-28T08:23:46.327Z,951.49
2019-04-28T08:24:35.163Z,951.47
2019-04-28T08:25:34.123Z,951.48
2019-04-28T08:26:36.281Z,951.55
2019-04-28T08:27:39.091Z,951.54
2019-04-28T08:28:34.094Z,951.54
2019-04-28T08:29:34.103Z,951.52
2019-04-28T08:30:34.070Z,951.52
2019-04-28T08:31:34.053Z,951.48
2019-04-28T08:32:34.050Z,951.50
2019-04-28T08:33:34.030Z,951.52
2019-04-28T08:34:34.015Z,951.51
2019-04-28T08:35:34.028Z,951.51
2019-04-28T08:36:34.015Z,951.57
2019-04-28T08:37:33.978Z,951.56
2019-04-28T08:38:34.027Z,951.53
2019-04-28T08:39:33.972Z,951.59
2019-04-28T08:40:33.970Z,951.58
2019-04-28T08:41:33.966Z,951.62
2019-04-28T08:42:33.927Z,951.63
2019-04-28T08:43:33.917Z,951.61
2019-04-28T08:44:33.923Z,951.62
2019-04-28T08:45:33.890Z,951.65
2019-04-28T08:46:33.963Z,951.61
2019-04-28T08:47:33.913Z,951.60
2019-04-28T08:48:33.862Z,951.63
2019-04-28T08:49:33.880Z,951.64
2019-04-28T08:50:33.869Z,951.64
2019-04-28T08:51:33.825Z,951.60
2019-04-28T08:52:33.827Z,951.64
2019-04-28T08:53:33.846Z,951.64
2019-04-28T08:54:33.786Z,951.71
2019-04-28T08:55:33.779Z,951.67
2019-04-28T08:56:33.769Z,951.67
2019-04-28T08:57:33.773Z,951.68
2019-04-28T08:58:33.772Z,951.67
2019-04-28T08:59:33.731Z,951.70
2019-04-28T09:00:33.755Z,951.71
2019-04-28T09:01:33.712Z,951.68
2019-04-28T09:02:33.762Z,951.72
2019-04-28T09:03:33.701Z,951.70
2019-04-28T09:04:33.670Z,951.78
2019-04-28T09:05:33.683Z,951.78
2019-04-28T09:06:33.658Z,951.83
2019-04-28T09:07:33.659Z,951.78
2019-04-28T09:08:33.729Z,951.82
2019-04-28T09:09:33.771Z,951.80
2019-04-28T09:10:33.621Z,951.77
2019-04-28T09:11:33.640Z,951.80
2019-04-28T09:12:33.679Z,951.84
2019-04-28T09:13:33.680Z,951.79
2019-04-28T09:14:33.738Z,951.78
2019-04-28T09:15:33.739Z,951.78
2019-04-28T09:16:33.657Z,951.83
2019-04-28T09:17:33.538Z,951.78
2019-04-28T09:18:33.532Z,951.78
2019-04-28T09:19:33.787Z,951.82
2019-04-28T09:20:33.557Z,951.83
2019-04-28T09:21:33.538Z,951.80
2019-04-28T09:22:33.499Z,951.79
2019-04-28T09:23:33.544Z,951.75
2019-04-28T09:24:33.531Z,951.76
2019-04-28T09:25:33.544Z,951.82
2019-04-28T09:26:33.485Z,951.72
2019-04-28T09:27:44.286Z,951.74
2019-04-28T09:28:33.485Z,951.73
2019-04-28T09:29:33.412Z,951.74
2019-04-28T09:30:34.077Z,951.77
2019-04-28T09:31:33.553Z,951.76
2019-04-28T09:32:33.437Z,951.77
2019-04-28T09:33:33.594Z,951.74
2019-04-28T09:34:33.434Z,951.77
2019-04-28T09:35:33.343Z,951.75
2019-04-28T09:36:33.394Z,951.72
2019-04-28T09:37:34.367Z,951.69
2019-04-28T09:38:33.343Z,951.76
2019-04-28T09:39:33.320Z,951.78
2019-04-28T09:40:33.305Z,951.76
2019-04-28T09:41:33.421Z,951.75
2019-04-28T09:42:44.121Z,951.81
2019-04-28T09:43:33.951Z,951.77
2019-04-28T09:44:33.282Z,951.77
2019-04-28T09:45:33.280Z,951.74
2019-04-28T09:46:33.270Z,951.73
2019-04-28T09:47:33.266Z,951.77
2019-04-28T09:48:33.263Z,951.76
2019-04-28T09:49:33.236Z,951.75
2019-04-28T09:50:33.197Z,951.80
2019-04-28T09:51:33.249Z,951.78
2019-04-28T09:52:33.252Z,951.82
2019-04-28T09:53:33.297Z,951.83
2019-04-28T09:54:33.250Z,951.78
2019-04-28T09:55:33.136Z,951.80
2019-04-28T09:56:33.177Z,951.83
2019-04-28T09:57:33.114Z,951.88
2019-04-28T09:58:33.077Z,951.90
2019-04-28T09:59:33.086Z,951.89
2019-04-28T10:00:33.092Z,951.96
2019-04-28T10:01:33.175Z,951.90
2019-04-28T10:02:33.142Z,951.87
2019-04-28T10:03:33.119Z,951.89
2019-04-28T10:04:41.351Z,951.91
2019-04-28T10:05:33.990Z,951.95
2019-04-28T10:06:33.168Z,951.89
2019-04-28T10:07:33.051Z,951.92
2019-04-28T10:08:33.022Z,951.92
2019-04-28T10:09:33.062Z,951.90
2019-04-28T10:10:32.944Z,951.94
2019-04-28T10:11:32.986Z,951.92
2019-04-28T10:12:32.908Z,951.93
2019-04-28T10:13:32.940Z,951.91
2019-04-28T10:14:33.027Z,951.93
2019-04-28T10:15:32.998Z,951.91
2019-04-28T10:16:33.449Z,951.99
2019-04-28T10:17:32.937Z,951.96
2019-04-28T10:18:32.893Z,951.94
2019-04-28T10:19:32.847Z,951.96
2019-04-28T10:20:32.941Z,951.94
2019-04-28T10:21:33.027Z,951.95
2019-04-28T10:22:32.830Z,951.96
2019-04-28T10:23:32.892Z,951.96
2019-04-28T10:24:32.775Z,952.00
2019-04-28T10:25:32.900Z,951.94
2019-04-28T10:26:32.870Z,952.01
2019-04-28T10:27:32.856Z,951.99
2019-04-28T10:28:32.777Z,952.01
2019-04-28T10:29:33.767Z,952.01
2019-04-28T10:30:34.537Z,952.06
2019-04-28T10:31:32.817Z,952.04
2019-04-28T10:32:32.687Z,952.08
2019-04-28T10:33:32.785Z,952.09
2019-04-28T10:34:32.710Z,952.06
2019-04-28T10:35:32.637Z,952.08
2019-04-28T10:36:32.716Z,952.11
2019-04-28T10:37:32.639Z,952.06
2019-04-28T10:38:32.648Z,952.05
2019-04-28T10:39:32.599Z,952.04
2019-04-28T10:40:32.628Z,952.06
2019-04-28T10:41:32.623Z,952.01
2019-04-28T10:42:32.660Z,952.08
2019-04-28T10:43:32.568Z,952.10
2019-04-28T10:44:32.539Z,952.01
2019-04-28T10:45:32.535Z,952.00
2019-04-28T10:46:32.562Z,952.05
2019-04-28T10:47:32.507Z,951.95
2019-04-28T10:48:32.524Z,951.99
2019-04-28T10:49:32.497Z,952.00
2019-04-28T10:50:32.483Z,951.94
2019-04-28T10:51:32.492Z,951.98
2019-04-28T10:52:32.447Z,952.01
2019-04-28T10:53:32.453Z,951.93
2019-04-28T10:54:33.051Z,951.95
2019-04-28T10:55:32.951Z,952.00
2019-04-28T10:56:32.428Z,951.99
2019-04-28T10:57:32.387Z,951.95
2019-04-28T10:58:32.474Z,952.03
2019-04-28T10:59:32.370Z,952.01
2019-04-28T11:00:33.951Z,952.01
2019-04-28T11:01:32.358Z,951.99
2019-04-28T11:02:32.352Z,952.03
2019-04-28T11:03:32.360Z,952.00
2019-04-28T11:04:32.314Z,952.00
2019-04-28T11:05:32.293Z,952.05
2019-04-28T11:06:32.285Z,952.04
2019-04-28T11:07:32.271Z,952.03
2019-04-28T11:08:32.466Z,952.04
2019-04-28T11:09:32.262Z,952.06
2019-04-28T11:10:32.247Z,952.11
2019-04-28T11:11:33.006Z,952.02
2019-04-28T11:12:32.217Z,951.99
2019-04-28T11:13:32.266Z,952.02
2019-04-28T11:14:32.244Z,952.03
2019-04-28T11:15:32.219Z,951.99
2019-04-28T11:16:32.188Z,952.00
2019-04-28T11:17:32.171Z,952.01
2019-04-28T11:18:32.196Z,952.02
2019-04-28T11:19:32.179Z,952.05
2019-04-28T11:20:32.173Z,951.99
2019-04-28T11:21:32.119Z,952.05
2019-04-28T11:22:32.111Z,952.07
2019-04-28T11:23:32.157Z,952.02
2019-04-28T11:24:32.973Z,952.01
2019-04-28T11:25:32.109Z,952.02
2019-04-28T11:26:32.057Z,952.01
2019-04-28T11:27:32.060Z,952.00
2019-04-28T11:28:32.113Z,951.99
2019-04-28T11:29:32.047Z,952.05
2019-04-28T11:30:32.052Z,952.01
2019-04-28T11:31:32.118Z,952.03
2019-04-28T11:32:32.072Z,952.06
2019-04-28T11:33:31.981Z,952.00
2019-04-28T11:34:31.966Z,952.06
2019-04-28T11:35:31.951Z,952.08
2019-04-28T11:36:32.095Z,952.09
2019-04-28T11:37:31.959Z,951.98
2019-04-28T11:38:32.015Z,952.02
2019-04-28T11:39:31.950Z,951.95
2019-04-28T11:40:31.951Z,951.98
2019-04-28T11:41:32.610Z,951.95
2019-04-28T11:42:31.927Z,951.94
2019-04-28T11:43:31.907Z,952.05
2019-04-28T11:44:31.891Z,951.88
2019-04-28T11:45:31.973Z,951.91
2019-04-28T11:46:31.892Z,951.92
2019-04-28T11:47:31.834Z,951.96
2019-04-28T11:48:31.835Z,951.92
2019-04-28T11:49:31.824Z,952.02
2019-04-28T11:50:31.834Z,952.00
2019-04-28T11:51:31.802Z,952.02
2019-04-28T11:52:31.796Z,952.01
2019-04-28T11:53:31.831Z,952.07
2019-04-28T11:54:31.802Z,952.03
2019-04-28T11:55:31.728Z,952.03
2019-04-28T11:56:41.318Z,952.00
2019-04-28T11:57:47.655Z,952.00
2019-04-28T11:58:32.625Z,952.06
2019-04-28T11:59:31.752Z,951.99
2019-04-28T12:00:31.711Z,952.03
2019-04-28T12:01:31.732Z,952.08
2019-04-28T12:02:31.659Z,952.11
2019-04-28T12:03:31.666Z,951.97
2019-04-28T12:04:31.695Z,951.97
2019-04-28T12:05:34.593Z,952.03
2019-04-28T12:06:31.715Z,952.04
2019-04-28T12:07:31.588Z,952.08
2019-04-28T12:08:31.590Z,952.09
2019-04-28T12:09:31.588Z,952.02
2019-04-28T12:10:31.565Z,952.08
2019-04-28T12:11:31.619Z,952.04
2019-04-28T12:12:31.600Z,952.02
2019-04-28T12:13:31.517Z,952.09
2019-04-28T12:14:31.523Z,952.11
2019-04-28T12:15:31.586Z,952.03
2019-04-28T12:16:31.523Z,952.05
2019-04-28T12:17:34.964Z,952.05
2019-04-28T12:18:31.476Z,952.02
2019-04-28T12:19:31.637Z,952.07
2019-04-28T12:20:31.483Z,952.09
2019-04-28T12:21:31.441Z,952.07
2019-04-28T12:22:31.488Z,952.08
2019-04-28T12:23:31.954Z,952.02
2019-04-28T12:24:31.511Z,952.12
2019-04-28T12:25:31.398Z,952.07
2019-04-28T12:26:31.518Z,952.12
2019-04-28T12:27:31.525Z,952.09
2019-04-28T12:28:31.446Z,952.14